Time;durP1;ratioP1;P1;durP2;ratioP2;P2;SDS_P1;SDS_P2;PMS_P1;PMS_P2;Temp;Humidity;BMP_temperature;BMP_pressure;BME280_temperature;BME280_humidity;BME280_pressure;Samples;Min_cycle;Max_cycle;Signal;HPM_P1;HPM_P2
2022/05/18 00:01:08;;;;;;;5.53;1.77;;;12.50;79.30;;;;;;5051897;28;20511;-53
2022/05/18 00:03:36;;;;;;;5.53;1.50;;;12.50;79.40;;;;;;5054558;28;20178;-54
2022/05/18 00:06:04;;;;;;;6.43;1.97;;;12.40;78.90;;;;;;5072363;28;20189;-51
2022/05/18 00:08:36;;;;;;;3.33;1.57;;;12.30;78.30;;;;;;5072513;28;20185;-54
2022/05/18 00:11:04;;;;;;;7.57;1.47;;;12.30;78.50;;;;;;5072202;28;20856;-58
2022/05/18 00:13:30;;;;;;;10.60;2.17;;;12.20;77.50;;;;;;5015055;28;20216;-53
2022/05/18 00:15:56;;;;;;;4.23;1.70;;;12.20;77.10;;;;;;5038951;28;20193;-51
2022/05/18 00:18:21;;;;;;;4.33;1.57;;;12.10;76.80;;;;;;5052486;28;20619;-52
2022/05/18 00:20:47;;;;;;;5.10;1.70;;;12.10;77.90;;;;;;5052220;28;20219;-50
2022/05/18 00:23:13;;;;;;;7.77;2.23;;;12.00;75.90;;;;;;5052503;28;20621;-52
2022/05/18 00:25:40;;;;;;;9.60;2.10;;;12.00;74.80;;;;;;5052167;28;20649;-52
2022/05/18 00:28:07;;;;;;;13.40;2.70;;;11.90;75.00;;;;;;5052101;28;20225;-50
2022/05/18 00:30:34;;;;;;;11.00;3.10;;;11.80;74.70;;;;;;5051874;28;20199;-50
2022/05/18 00:33:03;;;;;;;10.13;2.50;;;11.70;74.70;;;;;;5051827;28;20221;-53
2022/05/18 00:35:29;;;;;;;14.97;2.70;;;11.60;75.00;;;;;;5054599;28;20252;-50
2022/05/18 00:37:55;;;;;;;10.23;2.40;;;11.50;74.20;;;;;;5051618;28;20180;-50
2022/05/18 00:40:21;;;;;;;9.77;2.73;;;11.40;74.60;;;;;;5051975;28;20191;-49
2022/05/18 00:42:47;;;;;;;9.83;2.63;;;11.20;75.20;;;;;;5051517;28;20194;-57
2022/05/18 00:45:14;;;;;;;8.70;2.03;;;11.00;75.90;;;;;;5051663;28;20628;-53
2022/05/18 00:47:40;;;;;;;7.50;2.87;;;10.90;76.10;;;;;;5051455;28;20190;-54
2022/05/18 00:50:08;;;;;;;11.87;1.97;;;10.80;76.90;;;;;;5051933;28;20182;-49
2022/05/18 00:53:03;;;;;;;11.47;2.23;;;10.70;76.50;;;;;;5051736;28;20207;-52
2022/05/18 00:55:33;;;;;;;13.53;2.33;;;10.60;77.00;;;;;;5049249;28;20555;-50
2022/05/18 00:58:07;;;;;;;13.70;2.53;;;10.50;77.40;;;;;;5051596;28;20680;-53
2022/05/18 01:00:35;;;;;;;11.30;2.30;;;10.40;77.90;;;;;;5051352;28;20174;-49
2022/05/18 01:03:11;;;;;;;7.67;2.07;;;10.40;77.90;;;;;;5051009;28;20391;-52
2022/05/18 01:05:43;;;;;;;5.37;1.83;;;10.30;78.60;;;;;;5067526;28;20353;-53
2022/05/18 01:08:10;;;;;;;11.80;1.80;;;10.20;78.60;;;;;;5071496;28;20319;-50
2022/05/18 01:10:36;;;;;;;7.40;1.90;;;10.10;78.80;;;;;;5071687;28;20209;-52
2022/05/18 01:13:03;;;;;;;13.97;2.73;;;10.10;78.40;;;;;;5054461;28;20292;-52
2022/05/18 01:15:32;;;;;;;7.50;1.73;;;10.10;78.50;;;;;;5051309;28;20178;-50
2022/05/18 01:17:59;;;;;;;7.23;1.97;;;10.10;78.40;;;;;;5051239;28;20310;-49
2022/05/18 01:20:32;;;;;;;7.57;1.93;;;10.00;79.10;;;;;;5051580;28;20183;-53
2022/05/18 01:23:49;;;;;;;8.53;1.63;;;10.00;77.90;;;;;;5051220;28;20165;-51
2022/05/18 01:26:40;;;;;;;8.00;2.20;;;10.00;77.40;;;;;;5006673;28;20189;-49
2022/05/18 01:29:07;;;;;;;6.30;1.57;;;10.00;77.00;;;;;;5051075;28;20173;-53
2022/05/18 01:31:56;;;;;;;6.70;1.43;;;10.00;77.60;;;;;;5051533;28;20279;-51
2022/05/18 01:34:25;;;;;;;5.13;1.70;;;10.00;75.60;;;;;;5052808;28;20189;-52
2022/05/18 01:36:51;;;;;;;3.37;1.30;;;10.00;76.20;;;;;;5053108;28;20176;-49
2022/05/18 01:39:26;;;;;;;5.53;1.67;;;10.00;76.20;;;;;;5071337;28;20187;-52
2022/05/18 01:41:59;;;;;;;5.90;1.73;;;9.90;76.20;;;;;;5064007;28;20608;-51
2022/05/18 01:44:25;;;;;;;10.77;1.70;;;9.90;76.20;;;;;;5051426;28;20623;-50
2022/05/18 01:46:52;;;;;;;2.90;1.47;;;9.90;76.10;;;;;;5050963;28;20242;-55
2022/05/18 01:49:18;;;;;;;6.97;1.53;;;9.90;75.80;;;;;;5051288;28;20238;-53
2022/05/18 01:51:51;;;;;;;6.33;1.47;;;9.90;75.60;;;;;;5051186;28;20571;-52
2022/05/18 01:54:17;;;;;;;5.53;1.37;;;9.90;75.00;;;;;;5051092;28;20197;-49
2022/05/18 01:56:43;;;;;;;6.20;1.67;;;9.90;75.30;;;;;;5033041;28;20220;-52
2022/05/18 01:59:09;;;;;;;10.90;1.53;;;9.90;76.00;;;;;;5050012;28;20205;-54
2022/05/18 02:01:36;;;;;;;7.40;1.80;;;9.80;76.30;;;;;;5054439;28;20238;-52
2022/05/18 02:04:02;;;;;;;10.97;1.50;;;9.80;77.00;;;;;;5054857;28;20189;-53
2022/05/18 02:06:29;;;;;;;8.63;1.73;;;9.80;77.30;;;;;;5072281;28;20183;-54
2022/05/18 02:08:56;;;;;;;5.77;1.53;;;9.70;77.40;;;;;;5074423;28;20196;-54
2022/05/18 02:11:22;;;;;;;4.77;2.13;;;9.70;77.60;;;;;;5071938;28;20198;-53
2022/05/18 02:13:48;;;;;;;5.20;1.17;;;9.60;77.90;;;;;;5054449;28;20208;-53
2022/05/18 02:16:14;;;;;;;3.57;1.57;;;9.50;78.10;;;;;;5054879;28;20204;-54
2022/05/18 02:18:40;;;;;;;5.63;1.43;;;9.50;78.10;;;;;;5054770;28;20179;-53
2022/05/18 02:21:09;;;;;;;4.53;1.40;;;9.50;78.20;;;;;;5054324;28;20936;-54
2022/05/18 02:23:36;;;;;;;5.70;1.60;;;9.40;78.30;;;;;;5054843;28;20179;-54
2022/05/18 02:26:07;;;;;;;5.23;1.70;;;9.40;79.10;;;;;;5054060;28;20275;-50
2022/05/18 02:28:33;;;;;;;6.67;1.30;;;9.30;79.40;;;;;;5054068;28;20183;-53
2022/05/18 02:30:58;;;;;;;7.43;1.90;;;9.30;80.10;;;;;;5053985;28;20179;-52
2022/05/18 02:33:24;;;;;;;7.60;1.60;;;9.20;80.30;;;;;;5036271;28;20215;-54
2022/05/18 02:35:50;;;;;;;4.03;1.53;;;9.20;80.20;;;;;;5064917;28;20712;-59
2022/05/18 02:38:15;;;;;;;10.03;1.60;;;9.10;80.30;;;;;;5074237;28;20175;-51
2022/05/18 02:40:41;;;;;;;10.93;1.70;;;9.00;80.70;;;;;;5073923;28;20205;-50
2022/05/18 02:43:07;;;;;;;3.67;1.87;;;9.00;81.20;;;;;;5056305;28;20183;-51
2022/05/18 02:45:33;;;;;;;5.90;1.60;;;8.90;81.60;;;;;;5053823;28;20212;-54
2022/05/18 02:47:59;;;;;;;5.17;1.53;;;8.80;82.50;;;;;;5053799;28;20183;-52
2022/05/18 02:50:26;;;;;;;15.23;2.37;;;8.70;83.00;;;;;;5054256;28;20211;-52
2022/05/18 02:52:52;;;;;;;12.47;2.30;;;8.60;83.40;;;;;;5053658;28;20215;-51
2022/05/18 02:58:22;;;;;;;8.87;1.87;;;8.50;84.30;;;;;;4991493;28;20309;-53
2022/05/18 03:00:47;;;;;;;7.37;1.83;;;8.50;85.00;;;;;;4991883;28;20276;-53
2022/05/18 03:03:13;;;;;;;9.30;1.83;;;8.40;85.30;;;;;;5019737;28;20571;-51
2022/05/18 03:05:39;;;;;;;8.70;2.03;;;8.30;86.20;;;;;;5061343;28;20239;-52
2022/05/18 03:08:06;;;;;;;6.63;1.80;;;8.30;86.90;;;;;;5073223;28;20193;-53
2022/05/18 03:10:31;;;;;;;13.77;2.07;;;8.30;87.50;;;;;;5073118;28;20170;-49
2022/05/18 03:12:57;;;;;;;4.33;1.60;;;8.20;87.30;;;;;;5057361;28;20210;-52
2022/05/18 03:15:23;;;;;;;7.63;1.40;;;8.20;88.10;;;;;;5053214;28;20529;-52
2022/05/18 03:17:49;;;;;;;4.63;1.50;;;8.20;87.20;;;;;;5053794;28;20669;-52
2022/05/18 03:23:33;;;;;;;5.00;1.37;;;8.20;87.60;;;;;;5053060;28;20191;-53
2022/05/18 03:25:44;;;;;;;10.33;1.60;;;8.10;88.30;;;;;;5052814;28;20217;-54
2022/05/18 03:28:10;;;;;;;5.70;1.43;;;8.10;89.20;;;;;;5052528;28;20551;-54
2022/05/18 03:30:35;;;;;;;3.57;1.40;;;8.10;89.80;;;;;;5052993;28;20286;-53
2022/05/18 03:33:01;;;;;;;3.37;1.20;;;8.10;89.20;;;;;;5052219;28;20593;-52
2022/05/18 03:35:27;;;;;;;4.43;1.10;;;8.10;90.10;;;;;;5057269;28;20268;-53
2022/05/18 03:37:53;;;;;;;8.30;1.50;;;8.20;90.10;;;;;;5072568;28;20643;-60
2022/05/18 03:40:18;;;;;;;11.27;2.37;;;8.20;90.10;;;;;;5073344;28;20235;-53
2022/05/18 03:42:44;;;;;;;7.73;1.67;;;8.20;90.20;;;;;;5040394;28;20644;-53
2022/05/18 03:45:10;;;;;;;3.33;1.57;;;8.20;90.30;;;;;;5052432;28;20179;-54
2022/05/18 03:47:36;;;;;;;16.97;2.37;;;8.30;90.10;;;;;;5052616;28;20178;-51
2022/05/18 03:50:02;;;;;;;12.53;1.30;;;8.30;89.50;;;;;;5034579;28;20612;-53
2022/05/18 03:52:28;;;;;;;7.63;1.27;;;8.30;89.50;;;;;;5034906;28;20675;-54
2022/05/18 03:54:54;;;;;;;3.93;1.17;;;8.20;89.20;;;;;;5052145;28;20206;-51
2022/05/18 03:57:19;;;;;;;4.10;1.00;;;8.20;89.80;;;;;;5052565;28;20196;-54
2022/05/18 03:59:45;;;;;;;4.30;0.77;;;8.30;89.20;;;;;;5051818;28;20174;-51
2022/05/18 04:02:11;;;;;;;15.87;1.50;;;8.30;88.80;;;;;;5052116;28;20275;-55
2022/05/18 04:04:36;;;;;;;2.87;1.07;;;8.40;89.70;;;;;;5034696;28;20277;-54
2022/05/18 04:07:03;;;;;;;4.63;1.30;;;8.50;89.20;;;;;;5066131;28;20193;-56
2022/05/18 04:09:28;;;;;;;5.30;1.07;;;8.40;88.30;;;;;;5071782;28;20623;-52
2022/05/18 04:11:54;;;;;;;5.93;1.57;;;8.50;88.00;;;;;;5046219;28;20278;-53
2022/05/18 04:14:20;;;;;;;9.70;1.17;;;8.50;88.30;;;;;;5051688;28;20186;-54
2022/05/18 04:16:49;;;;;;;5.10;1.17;;;8.50;88.20;;;;;;5051969;28;20629;-52
2022/05/18 04:19:15;;;;;;;8.23;1.00;;;8.50;87.40;;;;;;5051616;28;20208;-52
2022/05/18 04:21:41;;;;;;;2.17;1.10;;;8.50;86.60;;;;;;5051155;28;20179;-54
2022/05/18 04:24:07;;;;;;;5.13;1.13;;;8.60;87.10;;;;;;5051735;28;20567;-53
2022/05/18 04:26:33;;;;;;;10.70;1.40;;;8.50;86.30;;;;;;5051790;28;20273;-55
2022/05/18 04:28:58;;;;;;;12.13;2.07;;;8.60;87.30;;;;;;5032959;28;20633;-56
2022/05/18 04:31:24;;;;;;;3.30;0.97;;;8.60;86.30;;;;;;5033471;28;20221;-55
2022/05/18 04:33:50;;;;;;;0.87;0.47;;;8.60;85.40;;;;;;5050896;28;20578;-56
2022/05/18 04:36:15;;;;;;;3.23;1.00;;;8.60;84.40;;;;;;5057288;28;20239;-55
2022/05/18 04:38:41;;;;;;;2.97;0.70;;;8.70;85.30;;;;;;5070882;28;20628;-56
2022/05/18 04:41:07;;;;;;;4.13;1.07;;;8.80;85.60;;;;;;5052258;28;20285;-54
2022/05/18 04:43:32;;;;;;;3.90;1.27;;;8.80;85.10;;;;;;5050866;28;20265;-51
2022/05/18 04:45:58;;;;;;;7.83;1.30;;;8.70;85.00;;;;;;5032956;28;20189;-54
2022/05/18 04:48:26;;;;;;;5.23;1.30;;;8.70;86.00;;;;;;5050688;28;20190;-56
2022/05/18 04:50:52;;;;;;;10.77;1.47;;;8.70;87.00;;;;;;5033503;28;20229;-54
2022/05/18 04:53:18;;;;;;;9.90;1.20;;;8.70;85.80;;;;;;5032237;28;20685;-54
2022/05/18 04:55:44;;;;;;;4.13;1.13;;;8.80;85.30;;;;;;5051002;28;20535;-54
2022/05/18 04:58:10;;;;;;;5.33;1.43;;;8.80;85.30;;;;;;5049818;28;20186;-54
2022/05/18 05:00:37;;;;;;;2.63;1.10;;;8.80;86.20;;;;;;5050730;28;20273;-56
2022/05/18 05:03:03;;;;;;;9.50;1.90;;;8.80;86.70;;;;;;5049886;28;20432;-55
2022/05/18 05:05:29;;;;;;;4.33;1.10;;;8.80;87.40;;;;;;5050607;28;20209;-55
2022/05/18 05:07:55;;;;;;;8.17;1.13;;;8.80;87.00;;;;;;5068883;28;20228;-61
2022/05/18 05:10:22;;;;;;;5.53;1.03;;;8.70;86.70;;;;;;5070486;28;20174;-51
2022/05/18 05:12:47;;;;;;;2.07;0.63;;;8.80;87.30;;;;;;5055959;28;20293;-55
2022/05/18 05:15:14;;;;;;;6.00;1.40;;;8.80;87.70;;;;;;5050210;28;20320;-52
2022/05/18 05:17:40;;;;;;;5.33;1.10;;;8.80;89.00;;;;;;5050514;28;20178;-54
2022/05/18 05:20:06;;;;;;;11.33;1.50;;;8.80;88.20;;;;;;5050479;28;20183;-56
2022/05/18 05:22:32;;;;;;;6.60;1.10;;;8.80;88.00;;;;;;5050552;28;20200;-56
2022/05/18 05:24:58;;;;;;;5.40;1.60;;;8.70;88.00;;;;;;5032435;28;20191;-55
2022/05/18 05:27:23;;;;;;;4.30;0.97;;;8.80;88.60;;;;;;5032444;28;20185;-59
2022/05/18 05:29:50;;;;;;;6.73;1.50;;;8.70;87.60;;;;;;5050749;28;20182;-61
2022/05/18 05:32:16;;;;;;;5.90;1.10;;;8.80;87.70;;;;;;5032560;28;20224;-58
2022/05/18 05:34:42;;;;;;;5.17;1.00;;;8.80;86.80;;;;;;5053509;28;20233;-62
2022/05/18 05:37:08;;;;;;;3.50;1.10;;;8.80;86.60;;;;;;5051952;28;20539;-60
2022/05/18 05:39:34;;;;;;;2.40;0.50;;;8.90;87.30;;;;;;5035982;28;20194;-61
2022/05/18 05:42:00;;;;;;;5.50;0.80;;;8.90;85.50;;;;;;5053263;28;20223;-59
2022/05/18 05:44:25;;;;;;;4.33;1.20;;;8.90;87.00;;;;;;5054081;28;20184;-60
2022/05/18 05:46:51;;;;;;;3.07;0.60;;;9.00;87.90;;;;;;5054712;28;20183;-60
2022/05/18 05:49:17;;;;;;;4.33;0.80;;;9.10;86.30;;;;;;5051739;28;20651;-62
2022/05/18 05:51:43;;;;;;;5.20;0.83;;;9.00;86.60;;;;;;5053424;28;20190;-61
2022/05/18 05:54:09;;;;;;;10.97;0.87;;;9.00;86.30;;;;;;5053767;28;20298;-53
2022/05/18 05:56:34;;;;;;;4.83;0.90;;;9.00;87.10;;;;;;5063839;28;20205;-59
2022/05/18 05:59:00;;;;;;;2.47;0.90;;;9.10;86.40;;;;;;5073707;28;20220;-60
2022/05/18 06:01:26;;;;;;;2.00;0.60;;;9.10;86.20;;;;;;5073790;28;20241;-61
2022/05/18 06:03:52;;;;;;;5.30;1.10;;;9.10;86.90;;;;;;5074196;28;20244;-59
2022/05/18 06:06:19;;;;;;;0.93;0.47;;;9.10;87.40;;;;;;5071956;28;20546;-57
2022/05/18 06:08:45;;;;;;;9.37;1.23;;;9.10;86.50;;;;;;5054337;28;20582;-57
2022/05/18 06:11:11;;;;;;;2.30;0.73;;;9.10;87.10;;;;;;5036554;28;20178;-58
2022/05/18 06:13:38;;;;;;;5.13;0.87;;;9.00;87.00;;;;;;5053790;28;20202;-61
2022/05/18 06:16:05;;;;;;;4.00;1.00;;;9.00;87.10;;;;;;5053238;28;20182;-59
2022/05/18 06:18:33;;;;;;;3.00;0.93;;;9.00;87.60;;;;;;5036163;28;20547;-62
2022/05/18 06:20:59;;;;;;;2.43;1.07;;;9.00;86.70;;;;;;5053727;28;20575;-60
2022/05/18 06:23:25;;;;;;;6.80;1.13;;;9.00;86.20;;;;;;5054478;28;20200;-61
2022/05/18 06:25:51;;;;;;;2.57;0.77;;;9.00;84.40;;;;;;5070216;28;20190;-58
2022/05/18 06:28:17;;;;;;;7.27;1.00;;;9.00;84.40;;;;;;5054464;28;20190;-57
2022/05/18 06:30:43;;;;;;;5.67;0.93;;;9.10;84.00;;;;;;5072810;28;20197;-57
2022/05/18 06:33:10;;;;;;;1.73;0.67;;;9.30;84.50;;;;;;5073500;28;20278;-58
2022/05/18 06:35:36;;;;;;;3.37;0.77;;;9.50;85.20;;;;;;5040590;28;20195;-57
2022/05/18 06:38:09;;;;;;;5.20;1.27;;;9.60;85.70;;;;;;5067663;28;20190;-59
2022/05/18 06:43:22;;;;;;;4.33;0.80;;;9.70;85.60;;;;;;5051814;28;20675;-60
2022/05/18 06:45:48;;;;;;;0.97;0.53;;;9.70;84.70;;;;;;5050515;28;20202;-57
2022/05/18 06:48:14;;;;;;;10.57;2.13;;;9.60;84.00;;;;;;5050813;28;20665;-58
2022/05/18 06:50:40;;;;;;;3.77;0.80;;;9.60;85.30;;;;;;5051467;28;20186;-60
2022/05/18 06:53:06;;;;;;;3.13;0.70;;;9.80;84.40;;;;;;5050120;28;20870;-60
2022/05/18 06:55:31;;;;;;;1.10;0.70;;;9.90;83.90;;;;;;5049788;28;20694;-59
2022/05/18 06:57:57;;;;;;;1.73;0.70;;;10.00;83.40;;;;;;5049911;28;20276;-60
2022/05/18 07:00:23;;;;;;;0.93;0.80;;;10.10;82.60;;;;;;5050960;28;20186;-61
2022/05/18 07:02:50;;;;;;;3.70;0.97;;;10.20;83.00;;;;;;5051079;28;20233;-61
2022/05/18 07:05:16;;;;;;;5.10;1.00;;;10.40;83.10;;;;;;5051128;28;20186;-57
2022/05/18 07:07:41;;;;;;;5.80;0.80;;;10.50;82.40;;;;;;5034041;28;20196;-60
2022/05/18 07:10:08;;;;;;;1.53;1.00;;;10.70;82.80;;;;;;5052884;28;20237;-57
2022/05/18 07:12:37;;;;;;;5.57;1.00;;;11.00;80.60;;;;;;5052944;28;20221;-57
2022/05/18 07:15:04;;;;;;;4.23;0.83;;;11.10;80.20;;;;;;5059190;28;20298;-56
2022/05/18 07:17:30;;;;;;;2.37;0.90;;;11.30;80.40;;;;;;5073526;28;20608;-57
2022/05/18 07:19:56;;;;;;;4.20;0.63;;;11.20;80.80;;;;;;5073381;28;20282;-58
2022/05/18 07:22:22;;;;;;;5.47;1.10;;;11.00;81.60;;;;;;5072890;28;20273;-57
2022/05/18 07:24:48;;;;;;;3.57;0.90;;;10.90;82.20;;;;;;5072757;28;20229;-58
2022/05/18 07:27:13;;;;;;;1.30;0.70;;;11.00;82.50;;;;;;5071908;28;20615;-57
2022/05/18 07:29:39;;;;;;;1.90;0.63;;;11.20;81.20;;;;;;5072685;28;20189;-53
2022/05/18 07:32:08;;;;;;;4.33;0.70;;;11.20;80.90;;;;;;5037783;28;20198;-59
2022/05/18 07:34:34;;;;;;;2.43;1.00;;;11.30;80.00;;;;;;5066483;28;20312;-57
2022/05/18 07:37:01;;;;;;;7.67;1.80;;;11.60;79.80;;;;;;5055966;28;20230;-62
2022/05/18 07:39:28;;;;;;;9.20;0.83;;;11.70;79.70;;;;;;5072425;28;20179;-55
2022/05/18 07:41:55;;;;;;;7.07;1.67;;;11.80;80.10;;;;;;5059863;28;20551;-62
2022/05/18 07:44:21;;;;;;;5.50;1.07;;;11.40;80.50;;;;;;5051947;28;20191;-63
2022/05/18 07:46:47;;;;;;;3.30;0.67;;;11.30;79.10;;;;;;5052259;28;20252;-60
2022/05/18 07:49:13;;;;;;;4.87;0.77;;;11.50;78.90;;;;;;5051686;28;20230;-63
2022/05/18 07:51:39;;;;;;;4.40;0.97;;;11.60;78.50;;;;;;5053031;28;20208;-62
2022/05/18 07:54:05;;;;;;;12.43;0.80;;;11.80;79.80;;;;;;5052688;28;20202;-61
2022/05/18 07:56:31;;;;;;;4.30;0.70;;;12.00;80.00;;;;;;5052196;28;20236;-60
2022/05/18 07:58:57;;;;;;;3.90;0.97;;;11.90;79.70;;;;;;5034154;28;20272;-60
2022/05/18 08:01:22;;;;;;;8.43;0.90;;;11.80;78.80;;;;;;5051826;28;20673;-60
2022/05/18 08:03:48;;;;;;;2.07;0.70;;;11.30;79.90;;;;;;5051902;28;20624;-62
2022/05/18 08:06:14;;;;;;;3.53;0.70;;;10.80;80.50;;;;;;5051404;28;20280;-60
2022/05/18 08:08:40;;;;;;;4.67;0.93;;;10.80;79.70;;;;;;5068152;28;20185;-61
2022/05/18 08:16:35;;;;;;;7.97;1.13;;;11.40;80.10;;;;;;5051671;28;20218;-60
2022/05/18 08:19:02;;;;;;;6.83;0.87;;;11.60;78.90;;;;;;5052001;28;20189;-55
2022/05/18 08:21:28;;;;;;;7.77;0.80;;;11.40;78.60;;;;;;5033513;28;20243;-56
2022/05/18 08:23:54;;;;;;;10.23;1.03;;;11.40;78.60;;;;;;5052096;28;20187;-57
2022/05/18 08:26:20;;;;;;;5.00;0.60;;;11.40;80.30;;;;;;5051482;28;20208;-57
2022/05/18 08:28:45;;;;;;;5.07;0.83;;;11.20;80.50;;;;;;5051631;28;20197;-57
2022/05/18 08:31:12;;;;;;;3.27;1.07;;;11.20;81.20;;;;;;5051014;28;20187;-57
2022/05/18 08:33:38;;;;;;;10.73;0.50;;;11.30;82.10;;;;;;5050988;28;20440;-55
2022/05/18 08:36:07;;;;;;;3.43;0.73;;;11.30;81.90;;;;;;5051376;28;20325;-60
2022/05/18 08:38:35;;;;;;;2.87;0.80;;;11.20;80.10;;;;;;5065020;28;20189;-58
2022/05/18 08:41:15;;;;;;;2.73;0.90;;;11.60;80.20;;;;;;5071276;28;20181;-58
2022/05/18 08:43:44;;;;;;;9.20;0.77;;;11.40;79.50;;;;;;5031486;28;20239;-55
2022/05/18 08:46:43;;;;;;;1.40;0.33;;;11.50;78.90;;;;;;5031209;28;20280;-59
2022/05/18 08:54:59;;;;;;;9.77;1.30;;;11.10;79.00;;;;;;5272330;23;20238;-61
2022/05/18 08:57:35;;;;;;;4.50;0.63;;;11.10;79.30;;;;;;4997354;28;20202;-61
2022/05/18 09:00:13;;;;;;;6.27;0.80;;;11.40;79.80;;;;;;4991953;28;20533;-61
2022/05/18 09:02:41;;;;;;;2.97;1.50;;;11.50;79.60;;;;;;4998243;28;20229;-62
2022/05/18 09:05:33;;;;;;;7.30;0.87;;;11.70;79.60;;;;;;5011039;28;20259;-60
2022/05/18 09:08:04;;;;;;;3.77;0.80;;;12.00;79.40;;;;;;5027886;28;20645;-61
2022/05/18 09:10:45;;;;;;;4.40;0.70;;;11.90;78.80;;;;;;5028903;28;20200;-63
2022/05/18 09:13:13;;;;;;;4.77;1.10;;;11.50;79.60;;;;;;5010289;28;20267;-61
2022/05/18 09:16:06;;;;;;;3.87;0.70;;;11.40;80.60;;;;;;5010301;28;20177;-60
2022/05/18 09:19:00;;;;;;;3.17;0.63;;;11.50;81.20;;;;;;4996891;28;20632;-62
2022/05/18 09:21:50;;;;;;;3.77;0.93;;;11.90;81.60;;;;;;5010784;28;20197;-59
2022/05/18 09:24:34;;;;;;;6.90;0.80;;;12.60;80.10;;;;;;5010567;28;20224;-62
2022/05/18 09:27:12;;;;;;;2.50;0.40;;;12.80;78.60;;;;;;5000020;28;20218;-61
2022/05/18 09:30:03;;;;;;;3.53;0.63;;;12.80;78.10;;;;;;5009760;28;20190;-59
2022/05/18 09:32:37;;;;;;;9.87;0.77;;;12.90;77.80;;;;;;5010776;28;20381;-62
2022/05/18 09:35:06;;;;;;;1.80;0.60;;;13.20;78.00;;;;;;5010913;28;20271;-62
2022/05/18 09:37:35;;;;;;;6.63;0.97;;;13.20;77.50;;;;;;5010270;28;20171;-61
2022/05/18 09:40:03;;;;;;;2.93;0.63;;;13.20;78.60;;;;;;5011170;28;20219;-61
2022/05/18 09:42:35;;;;;;;5.30;0.70;;;13.10;77.70;;;;;;5010254;28;20192;-61
2022/05/18 09:45:14;;;;;;;3.70;0.63;;;13.20;77.70;;;;;;5010880;28;20273;-60
2022/05/18 09:47:49;;;;;;;5.53;0.73;;;13.20;77.30;;;;;;5010527;28;20187;-60
2022/05/18 09:50:15;;;;;;;8.87;0.60;;;13.40;78.10;;;;;;5010998;28;20198;-61
2022/05/18 09:52:44;;;;;;;1.90;0.67;;;13.30;75.90;;;;;;4991689;28;20219;-62
2022/05/18 09:55:14;;;;;;;4.53;1.00;;;13.10;76.60;;;;;;5010258;28;20200;-61
2022/05/18 09:58:02;;;;;;;2.43;0.80;;;13.20;77.60;;;;;;4994222;28;20287;-57
2022/05/18 10:00:30;;;;;;;5.30;0.60;;;13.40;77.60;;;;;;4991171;28;20176;-60
2022/05/18 10:08:52;;;;;;;9.30;1.10;;;13.20;76.90;;;;;;5009658;28;20189;-62
2022/05/18 10:11:22;;;;;;;3.23;1.13;;;12.90;77.40;;;;;;5009853;28;20183;-59
2022/05/18 10:14:11;;;;;;;8.67;0.90;;;13.00;77.00;;;;;;5008634;28;20260;-66
2022/05/18 10:16:49;;;;;;;3.53;0.87;;;13.50;76.40;;;;;;5003405;28;20184;-62
2022/05/18 10:19:45;;;;;;;3.37;0.80;;;13.90;75.60;;;;;;5006582;28;20220;-61
2022/05/18 10:22:18;;;;;;;4.90;1.00;;;13.70;75.80;;;;;;4999637;28;20687;-62
2022/05/18 10:25:21;;;;;;;3.63;0.77;;;13.70;76.10;;;;;;4976397;28;20187;-60
2022/05/18 10:27:48;;;;;;;4.47;0.77;;;13.60;76.10;;;;;;4994080;28;20246;-63
2022/05/18 10:30:28;;;;;;;2.97;0.93;;;13.60;75.90;;;;;;4993837;28;20235;-61
2022/05/18 10:33:07;;;;;;;4.17;0.80;;;13.70;76.10;;;;;;4994360;28;20213;-63
2022/05/18 10:35:38;;;;;;;5.93;1.00;;;14.00;75.70;;;;;;4994017;28;20203;-62
2022/05/18 10:38:27;;;;;;;5.13;0.80;;;13.70;74.10;;;;;;4976351;28;20223;-57
2022/05/18 10:41:06;;;;;;;4.83;1.07;;;13.40;74.90;;;;;;4991154;28;20196;-57
2022/05/18 10:43:35;;;;;;;2.03;1.07;;;13.50;76.20;;;;;;5013302;28;20535;-57
2022/05/18 10:46:08;;;;;;;3.53;1.50;;;13.70;74.80;;;;;;5012463;28;20283;-58
2022/05/18 10:48:34;;;;;;;2.73;0.90;;;13.60;75.10;;;;;;4994761;28;20614;-57
2022/05/18 10:51:07;;;;;;;3.80;0.90;;;13.60;75.60;;;;;;5011871;28;20195;-58
2022/05/18 10:53:39;;;;;;;3.17;0.60;;;13.50;74.60;;;;;;5012389;28;20738;-59
2022/05/18 10:56:11;;;;;;;3.40;0.83;;;13.50;74.80;;;;;;5009572;28;20194;-59
2022/05/18 10:58:48;;;;;;;1.70;0.70;;;13.70;74.10;;;;;;5008780;28;20247;-51
2022/05/18 11:01:34;;;;;;;4.87;0.83;;;13.80;73.60;;;;;;5013004;28;20206;-51
2022/05/18 11:04:12;;;;;;;1.70;0.60;;;14.10;73.10;;;;;;4998373;28;20295;-60
2022/05/18 11:06:40;;;;;;;3.63;1.57;;;14.20;72.50;;;;;;4992179;28;20199;-60
2022/05/18 11:09:21;;;;;;;2.43;0.67;;;14.00;73.10;;;;;;4993359;28;20253;-61
2022/05/18 11:12:12;;;;;;;1.90;0.50;;;14.10;72.90;;;;;;4991346;28;20657;-61
2022/05/18 11:14:41;;;;;;;4.83;0.90;;;14.70;71.90;;;;;;4993721;28;20200;-60
2022/05/18 11:17:31;;;;;;;5.07;1.10;;;14.70;70.90;;;;;;4993772;28;20176;-60
2022/05/18 11:20:27;;;;;;;2.33;0.70;;;14.70;71.60;;;;;;4993678;28;20215;-59
2022/05/18 11:23:30;;;;;;;1.93;0.60;;;15.00;71.00;;;;;;4993644;28;20199;-59
2022/05/18 11:26:46;;;;;;;1.73;0.40;;;15.40;71.00;;;;;;4991371;28;20630;-61
2022/05/18 11:29:45;;;;;;;20.30;2.30;;;15.70;68.00;;;;;;4949875;28;20194;-60
2022/05/18 11:32:38;;;;;;;8.30;1.27;;;15.10;68.10;;;;;;4991072;28;20249;-63
2022/05/18 11:35:23;;;;;;;2.77;0.40;;;14.60;69.80;;;;;;4991582;28;20189;-63
2022/05/18 11:37:55;;;;;;;1.97;0.50;;;15.20;68.10;;;;;;4991588;28;20195;-64
2022/05/18 11:40:24;;;;;;;2.80;0.67;;;16.40;66.30;;;;;;4992321;28;20180;-60
2022/05/18 11:43:01;;;;;;;2.67;0.70;;;16.40;65.30;;;;;;4992229;28;20271;-62
2022/05/18 11:45:49;;;;;;;4.87;0.70;;;17.20;64.80;;;;;;5001816;28;20184;-60
2022/05/18 11:48:25;;;;;;;5.23;0.77;;;16.80;63.70;;;;;;5005616;28;20271;-59
2022/05/18 11:51:06;;;;;;;4.30;0.97;;;17.50;63.70;;;;;;5012884;28;20704;-62
2022/05/18 11:54:10;;;;;;;3.70;0.70;;;18.00;61.60;;;;;;4992787;28;20311;-60
2022/05/18 11:56:48;;;;;;;9.67;1.37;;;18.80;59.30;;;;;;4895546;29;20212;-62
2022/05/18 11:59:44;;;;;;;3.10;1.00;;;17.00;61.20;;;;;;4980635;28;20279;-59
2022/05/18 12:02:28;;;;;;;8.70;0.80;;;15.90;63.60;;;;;;4993093;28;20219;-62
2022/05/18 12:05:14;;;;;;;6.03;0.90;;;15.50;63.40;;;;;;4992900;28;20187;-59
2022/05/18 12:07:51;;;;;;;3.07;0.90;;;15.50;64.00;;;;;;4992779;28;20236;-60
2022/05/18 12:10:52;;;;;;;2.70;1.40;;;17.10;62.90;;;;;;4992653;28;20195;-60
2022/05/18 12:13:38;;;;;;;3.30;0.63;;;17.00;60.60;;;;;;4961805;28;20313;-60
2022/05/18 12:16:14;;;;;;;5.57;1.10;;;17.50;60.80;;;;;;4992380;28;20263;-60
2022/05/18 12:18:55;;;;;;;7.22;1.23;;;18.60;58.60;;;;;;5008792;28;20246;-60
2022/05/18 12:21:43;;;;;;;4.43;1.10;;;20.60;55.80;;;;;;5012433;28;20179;-61
2022/05/18 12:24:12;;;;;;;12.30;1.10;;;21.30;51.00;;;;;;5012174;28;20218;-61
2022/05/18 12:26:42;;;;;;;2.77;0.80;;;19.90;51.70;;;;;;5011451;28;20239;-60
2022/05/18 12:29:09;;;;;;;7.10;1.00;;;18.40;55.10;;;;;;5011996;28;20682;-62
2022/05/18 12:31:37;;;;;;;7.93;0.90;;;17.00;57.30;;;;;;5011632;28;20176;-61
2022/05/18 12:34:11;;;;;;;5.97;1.00;;;17.80;57.30;;;;;;5011659;28;20587;-61
2022/05/18 12:37:15;;;;;;;2.15;0.70;;;19.70;55.00;;;;;;5011504;28;20186;-61
2022/05/18 12:40:02;;;;;;;3.15;0.60;;;21.00;50.80;;;;;;4946461;28;20187;-60
2022/05/18 12:42:29;;;;;;;2.72;0.98;;;20.20;51.10;;;;;;5011070;28;20198;-69
2022/05/18 12:45:13;;;;;;;3.75;0.70;;;21.10;50.70;;;;;;5011064;28;20262;-60
2022/05/18 12:47:45;;;;;;;8.50;1.30;;;19.30;50.90;;;;;;5011423;28;20190;-61
2022/05/18 12:50:28;;;;;;;13.53;1.77;;;17.00;54.50;;;;;;5011859;28;20201;-60
2022/05/18 12:52:56;;;;;;;3.77;0.93;;;16.50;57.70;;;;;;4993352;28;20562;-59
2022/05/18 12:55:49;;;;;;;7.73;0.73;;;18.00;55.10;;;;;;4992067;28;20626;-59
2022/05/18 12:58:28;;;;;;;4.80;0.95;;;20.30;51.50;;;;;;4991662;28;20575;-59
2022/05/18 13:01:07;;;;;;;4.68;0.63;;;21.60;48.00;;;;;;4974321;28;20262;-61
2022/05/18 13:03:59;;;;;;;5.43;0.83;;;20.00;49.00;;;;;;4991432;28;20219;-61
2022/05/18 13:06:50;;;;;;;6.40;0.77;;;19.20;50.80;;;;;;4974296;28;20664;-60
2022/05/18 13:09:24;;;;;;;13.00;1.63;;;20.40;49.60;;;;;;4991533;28;20172;-60
2022/05/18 13:11:54;;;;;;;4.63;1.10;;;19.70;49.80;;;;;;4991239;28;20613;-60
2022/05/18 13:14:31;;;;;;;10.50;1.63;;;21.10;48.90;;;;;;4991214;28;20231;-61
2022/05/18 13:16:59;;;;;;;6.65;1.10;;;23.60;44.70;;;;;;4991640;28;20180;-60
2022/05/18 13:19:28;;;;;;;3.08;0.60;;;24.70;42.70;;;;;;4991596;28;20183;-61
2022/05/18 13:22:15;;;;;;;3.67;0.93;;;25.10;40.30;;;;;;4991697;28;20230;-60
2022/05/18 13:24:50;;;;;;;10.50;1.55;;;24.30;40.30;;;;;;4991167;28;20253;-60
2022/05/18 13:27:20;;;;;;;9.98;1.70;;;23.50;40.60;;;;;;4991515;28;20291;-60
2022/05/18 13:29:52;;;;;;;3.10;0.95;;;23.60;40.50;;;;;;4991339;28;20176;-62
2022/05/18 13:32:19;;;;;;;7.68;1.42;;;23.30;39.60;;;;;;4991194;28;20633;-60
2022/05/18 13:35:00;;;;;;;7.45;1.10;;;24.00;40.20;;;;;;4991092;28;20202;-61
2022/05/18 13:37:28;;;;;;;9.38;0.93;;;23.40;38.40;;;;;;4991337;28;20550;-61